Latest Weather Observations for Adelaide Airport

IDS60801

Issued at 5:11 am CDT Tuesday 13 November 2018 (issued every 10 minutes, with the page automatically refreshed every 10 minutes)

About weather observations | Map of weather stations | Latest weather observations for SA | Other Formats
Station Details ID: 023034 Name: ADELAIDE AIRPORT Lat: -34.95 Lon: 138.52 Height: 2.0 m
Data from the previous 72 hours. | See also: Recent months at Adelaide Airport
Date/Time
CDT
Temp
°C
App
Temp
°C
Dew
Point
°C
Rel
Hum
%
Delta-T
°C
Wind Press
QNH
hPa
Press
MSL
hPa
Rain since
9am
mm
Dir  Spd
km/h
Gust
km/h
Spd
kts
Gust
kts
13/05:00am 19.5 17.9 14.9 75 2.7 S 17 24 9 13 1008.5 1008.5 0.0
13/04:30am 20.7 17.7 14.7 68 3.5 WSW 24 33 13 18 1008.6 1008.6 0.0
13/04:00am 22.8 18.9 12.0 50 6.1 W 24 37 13 20 1007.8 1007.8 0.0
13/03:47am 22.5 20.2 12.9 54 5.5 NNE 17 43 9 23 1007.6 1007.6 0.0
13/03:30am 24.6 20.7 7.0 32 9.2 NE 17 20 9 11 1006.5 1006.5 0.0
13/03:00am 24.6 20.3 7.0 32 9.2 NNE 19 24 10 13 1006.9 1006.9 0.0
13/02:30am 24.5 22.5 8.7 36 8.5 NNE 9 11 5 6 1007.1 1007.1 0.0
13/02:00am 24.5 22.0 8.2 35 8.7 NE 11 13 6 7 1007.0 1007.0 0.0
13/01:30am 24.2 21.9 9.1 38 8.2 NE 11 13 6 7 1007.5 1007.5 0.0
13/01:00am 24.9 21.3 8.3 34 8.9 NE 17 20 9 11 1008.0 1008.0 0.0
13/12:30am 24.4 20.6 9.1 37 8.3 NE 19 20 10 11 1008.4 1008.4 0.0
13/12:00am 24.7 20.7 9.0 37 8.5 NE 20 26 11 14 1008.9 1008.9 0.0
 
Date/Time
CDT
Temp
°C
App
Temp
°C
Dew
Point
°C
Rel
Hum
%
Delta-T
°C
Wind Press
QNH
hPa
Press
MSL
hPa
Rain since
9am
mm
Dir  Spd
km/h
Gust
km/h
Spd
kts
Gust
kts
12/11:30pm 24.9 21.9 9.3 37 8.5 NNE 15 19 8 10 1009.4 1009.4 0.0
12/11:00pm 24.8 21.5 9.4 37 8.4 NE 17 20 9 11 1009.9 1009.9 0.0
12/10:30pm 25.3 23.1 9.4 36 8.7 ESE 11 17 6 9 1009.8 1009.8 0.0
12/10:00pm 24.0 22.4 11.4 45 7.1 W 11 15 6 8 1010.7 1010.7 0.0
12/09:30pm 23.5 21.8 12.5 50 6.3 ESE 13 19 7 10 1010.6 1010.6 0.0
12/09:00pm 23.6 22.3 12.6 50 6.3 SE 11 13 6 7 1010.8 1010.8 0.0
12/08:30pm 23.2 22.2 13.4 54 5.7 SE 11 15 6 8 1011.2 1011.2 0.0
12/08:00pm 23.3 24.2 13.9 55 5.5 SE 2 7 1 4 1011.4 1011.4 0.0
12/07:30pm 22.8 21.8 14.5 59 4.9 SSE 13 15 7 8 1011.5 1011.5 0.0
12/07:00pm 22.1 20.4 14.8 63 4.3 S 17 26 9 14 1011.6 1011.6 0.0
12/06:30pm 21.3 19.5 15.4 69 3.5 SSW 19 26 10 14 1011.5 1011.5 0.0
12/06:00pm 21.3 18.9 15.4 69 3.5 SSW 22 33 12 18 1011.1 1011.1 0.0
12/05:30pm 22.3 18.7 15.3 64 4.2 SSW 28 33 15 18 1011.0 1011.0 0.0
12/05:00pm 22.0 18.1 14.5 62 4.4 SSW 28 39 15 21 1010.8 1010.8 0.0
12/04:30pm 22.9 18.2 14.8 60 4.8 SSW 33 43 18 23 1010.5 1010.5 0.0
12/04:13pm 23.1 17.8 14.1 57 5.3 SW 35 59 19 32 1010.4 1010.4 0.0
12/04:12pm 23.3 18.2 13.7 54 5.6 WSW 33 59 18 32 1010.4 1010.4 0.0
12/04:08pm 24.6 17.9 13.3 49 6.6 WSW 41 59 22 32 1010.4 1010.4 0.0
12/04:07pm 24.9 21.3 13.0 47 6.9 W 24 59 13 32 1010.4 1010.4 0.0
12/04:00pm 30.3 25.0 1.8 16 14.1 WNW 19 22 10 12 1009.5 1009.5 0.0
12/03:30pm 31.5 24.8 -0.8 12 15.4 NW 24 33 13 18 1009.7 1009.7 0.0
12/03:00pm 32.4 24.4 -6.2 8 16.9 NW 28 37 15 20 1010.0 1010.0 0.0
12/02:30pm 33.3 26.1 -2.0 10 16.7 NW 26 35 14 19 1010.3 1010.3 0.0
12/02:00pm 31.2 23.7 -1.2 12 15.3 NW 28 35 15 19 1010.8 1010.8 0.0
12/01:30pm 31.5 23.0 -3.4 10 15.9 NW 32 41 17 22 1011.0 1011.0 0.0
12/01:00pm 32.3 24.1 -4.1 9 16.5 NW 30 37 16 20 1011.2 1011.2 0.0
12/12:30pm 32.8 24.0 -6.0 8 17.1 NW 32 39 17 21 1011.6 1011.6 0.0
12/12:00pm 31.8 23.7 -6.5 8 16.6 NNW 28 37 15 20 1012.2 1012.2 0.0
12/11:30am 31.9 22.6 -9.8 6 17.1 N 33 50 18 27 1012.3 1012.3 0.0
12/11:00am 32.4 23.8 -7.6 7 17.1 N 30 39 16 21 1012.4 1012.4 0.0
12/10:30am 30.8 23.4 -7.7 8 16.2 NNE 24 35 13 19 1012.4 1012.4 0.0
12/10:00am 30.0 22.4 -5.4 9 15.4 NNE 26 33 14 18 1012.6 1012.6 0.0
12/09:30am 29.5 22.2 -6.6 9 15.3 NNE 24 32 13 17 1012.8 1012.8 0.0
12/09:00am 29.6 22.6 -6.9 9 15.4 NNE 22 28 12 15 1012.7 1012.7 0.0
12/08:30am 27.6 21.4 -2.9 13 13.6 NE 20 28 11 15 1012.5 1012.5 0.0
12/08:00am 26.4 20.4 -2.8 14 12.9 NE 19 24 10 13 1012.4 1012.4 0.0
12/07:30am 25.2 19.3 -2.5 16 12.2 NE 19 22 10 12 1012.2 1012.2 0.0
12/07:00am 24.8 19.6 -2.6 16 12.0 NE 15 20 8 11 1012.1 1012.1 0.0
12/06:30am 23.2 17.9 -0.7 20 10.7 NE 17 24 9 13 1012.0 1012.0 0.0
12/06:00am 22.9 18.1 -0.1 21 10.4 NE 15 19 8 10 1011.9 1011.9 0.0
12/05:30am 22.7 17.1 -0.1 22 10.3 NE 19 19 10 10 1011.5 1011.5 0.0
12/05:00am 22.5 18.1 0.6 23 10.0 NE 13 15 7 8 1011.6 1011.6 0.0
12/04:30am 23.8 18.4 -1.0 19 11.1 NE 17 19 9 10 1011.7 1011.7 0.0
12/04:00am 24.2 18.4 -1.4 18 11.4 NE 19 20 10 11 1011.6 1011.6 0.0
12/03:30am 24.3 18.8 -2.0 17 11.6 NE 17 24 9 13 1011.6 1011.6 0.0
12/03:00am 24.4 18.5 -2.2 17 11.7 NE 19 24 10 13 1011.6 1011.6 0.0
12/02:30am 22.2 17.6 1.5 25 9.6 ENE 15 19 8 10 1011.9 1011.9 0.0
12/02:00am 22.8 18.2 1.6 24 9.9 E 15 19 8 10 1012.4 1012.4 0.0
12/01:30am 23.8 18.3 0.6 21 10.7 ENE 19 26 10 14 1012.9 1012.9 0.0
12/01:00am 22.9 18.1 2.4 26 9.7 E 17 22 9 12 1013.3 1013.3 0.0
12/12:30am 22.4 19.0 3.8 29 9.0 ENE 11 15 6 8 1013.8 1013.8 0.0
12/12:00am 22.3 18.2 4.3 31 8.8 E 15 17 8 9 1013.9 1013.9 0.0
 
Date/Time
CDT
Temp
°C
App
Temp
°C
Dew
Point
°C
Rel
Hum
%
Delta-T
°C
Wind Press
QNH
hPa
Press
MSL
hPa
Rain since
9am
mm
Dir  Spd
km/h
Gust
km/h
Spd
kts
Gust
kts
11/11:30pm 24.5 20.5 2.7 24 10.5 E 13 17 7 9 1014.4 1014.4 0.0
11/11:00pm 24.9 19.3 1.0 21 11.2 ESE 20 26 11 14 1014.8 1014.8 0.0
11/10:30pm 25.4 19.9 0.5 19 11.6 ESE 19 24 10 13 1014.9 1014.9 0.0
11/10:00pm 24.6 20.4 3.6 25 10.3 ESE 15 19 8 10 1015.0 1015.0 0.0
11/09:30pm 24.0 20.9 5.4 30 9.4 ESE 11 13 6 7 1014.8 1014.8 0.0
11/09:00pm 24.2 21.2 7.7 34 8.7 SE 13 13 7 7 1014.8 1014.8 0.0
11/08:30pm 24.0 23.0 10.2 41 7.6 ESE 6 9 3 5 1014.6 1014.6 0.0
11/08:00pm 25.6 20.8 -2.5 15 12.4 SSW 13 15 7 8 1014.1 1014.1 0.0
11/07:30pm 25.5 21.2 -1.8 16 12.2 SSW 11 17 6 9 1013.8 1013.8 0.0
11/07:00pm 26.0 22.6 3.9 24 11.0 SSW 11 15 6 8 1013.7 1013.7 0.0
11/06:30pm 27.7 22.9 -2.2 14 13.5 SSW 13 17 7 9 1013.6 1013.6 0.0
11/06:00pm 27.3 23.5 6.0 25 11.1 SW 15 17 8 9 1014.0 1014.0 0.0
11/05:30pm 28.9 24.3 -1.4 14 14.0 SW 13 17 7 9 1013.8 1013.8 0.0
11/05:00pm 29.0 25.5 1.0 16 13.5 SW 9 13 5 7 1014.0 1014.0 0.0
11/04:30pm 29.1 25.5 0.4 15 13.7 WSW 9 15 5 8 1014.4 1014.4 0.0
11/04:00pm 26.9 22.8 4.3 23 11.4 SW 15 19 8 10 1014.9 1014.9 0.0
11/03:30pm 24.9 20.7 8.2 34 8.9 SW 20 26 11 14 1015.4 1015.4 0.0
11/03:00pm 24.6 20.7 10.8 42 7.7 WSW 22 26 12 14 1015.7 1015.7 0.0
11/02:30pm 25.1 21.2 8.8 35 8.8 WSW 19 22 10 12 1015.7 1015.7 0.0
11/02:00pm 26.2 23.4 8.4 32 9.6 WSW 13 20 7 11 1016.2 1016.2 0.0
11/01:30pm 24.7 22.9 10.9 42 7.7 NNW 11 19 6 10 1016.6 1016.6 0.0
11/01:00pm 25.0 22.7 8.9 36 8.7 SW 11 15 6 8 1017.1 1017.1 0.0
11/12:30pm 23.4 21.1 10.3 43 7.2 WSW 13 17 7 9 1017.6 1017.6 0.0
11/12:00pm 21.1 18.3 10.0 49 6.0 SW 15 22 8 12 1018.2 1018.2 0.0
11/11:30am 20.4 17.0 10.4 52 5.4 SW 19 22 10 12 1018.5 1018.5 0.0
11/11:00am 21.2 18.2 10.8 51 5.7 WSW 17 22 9 12 1018.7 1018.7 0.0
11/10:30am 20.3 18.4 10.5 53 5.3 NNW 11 19 6 10 1018.8 1018.8 0.0
11/10:00am 23.0 18.6 4.8 30 9.0 NNE 17 22 9 12 1018.8 1018.8 0.0
11/09:30am 21.9 18.8 5.7 35 8.1 NNE 11 17 6 9 1019.1 1019.1 0.0
11/09:00am 19.7 17.1 6.2 41 6.7 NNE 9 15 5 8 1019.2 1019.2 0.0
11/08:30am 18.0 16.4 8.2 52 5.0 E 6 9 3 5 1019.3 1019.3 0.0
11/08:00am 17.3 15.8 8.5 56 4.5 ESE 6 9 3 5 1019.5 1019.5 0.0
11/07:30am 15.6 14.0 8.2 61 3.7 ESE 6 7 3 4 1019.7 1019.7 0.0
11/07:00am 13.9 12.4 8.3 69 2.8 SSE 6 7 3 4 1019.5 1019.5 0.0
11/06:30am 10.7 8.7 7.3 79 1.6 WSW 7 9 4 5 1019.4 1019.4 0.0
11/06:00am 10.4 8.4 7.2 80 1.5 SW 7 9 4 5 1018.9 1018.9 0.0
11/05:30am 10.5 8.7 7.1 79 1.6 SSE 6 7 3 4 1018.5 1018.5 0.0
11/05:00am 11.8 9.1 7.4 74 2.1 NNE 11 13 6 7 1017.9 1017.9 0.0
11/04:30am 10.4 7.8 6.3 76 1.9 NE 9 11 5 6 1018.0 1018.0 0.0
11/04:00am 11.1 10.2 6.2 72 2.3 CALM 0 0 0 0 1018.2 1018.2 0.0
11/03:30am 11.2 10.5 7.0 75 2.0 CALM 0 0 0 0 1018.4 1018.4 0.0
11/03:00am 12.0 10.2 7.2 72 2.3 ESE 6 6 3 3 1018.4 1018.4 0.0
11/02:30am 12.1 10.2 6.9 70 2.5 SSE 6 6 3 3 1018.6 1018.6 0.0
11/02:00am 12.9 11.7 6.4 64 3.1 NNW 2 7 1 4 1018.8 1018.8 0.0
11/01:30am 14.5 12.5 7.1 61 3.6 NE 7 7 4 4 1019.0 1019.0 0.0
11/01:00am 15.3 11.7 6.7 56 4.2 SE 15 17 8 9 1018.9 1018.9 0.0
11/12:30am 13.9 10.4 5.6 57 3.9 SE 13 19 7 10 1018.8 1018.8 0.0
11/12:00am 14.3 10.8 7.4 63 3.4 ESE 15 17 8 9 1019.1 1019.1 0.0
 
Date/Time
CDT
Temp
°C
App
Temp
°C
Dew
Point
°C
Rel
Hum
%
Delta-T
°C
Wind Press
QNH
hPa
Press
MSL
hPa
Rain since
9am
mm
Dir  Spd
km/h
Gust
km/h
Spd
kts
Gust
kts
10/11:30pm 15.1 12.1 7.9 62 3.6 ESE 13 17 7 9 1019.1 1019.1 0.0
10/11:00pm 16.3 12.8 7.2 55 4.5 ESE 15 20 8 11 1019.2 1019.2 0.0
10/10:30pm 16.6 12.8 7.6 55 4.5 ESE 17 20 9 11 1019.5 1019.5 0.0
10/10:00pm 17.1 13.4 8.0 55 4.6 SE 17 22 9 12 1019.4 1019.4 0.0
10/09:30pm 17.7 14.0 8.1 53 4.9 SE 17 24 9 13 1019.0 1019.0 0.0
10/09:00pm 18.7 14.3 6.7 45 6.0 SSE 19 26 10 14 1018.5 1018.5 0.0
10/08:30pm 19.6 15.4 3.8 35 7.5 SSW 15 20 8 11 1018.1 1018.1 0.0
10/08:00pm 20.0 15.7 3.5 33 7.8 S 15 19 8 10 1017.9 1017.9 0.0
10/07:30pm 20.0 14.5 3.8 34 7.7 SSW 22 28 12 15 1017.9 1017.9 0.0
10/07:00pm 20.7 14.9 4.6 34 7.8 SSW 24 32 13 17 1017.8 1017.8 0.0
10/06:30pm 21.6 15.4 2.0 27 9.1 SSW 24 32 13 17 1017.7 1017.7 0.0
10/06:00pm 22.3 16.4 -1.1 21 10.3 SSW 20 28 11 15 1017.6 1017.6 0.0
10/05:30pm 22.0 16.5 1.7 26 9.4 SSW 20 28 11 15 1017.7 1017.7 0.0
10/05:00pm 21.7 16.0 4.8 33 8.3 SW 24 30 13 16 1017.8 1017.8 0.0
10/04:30pm 22.6 16.8 -1.3 20 10.5 SW 19 26 10 14 1017.8 1017.8 0.0
10/04:00pm 23.5 18.3 -2.7 17 11.3 SSW 15 19 8 10 1017.8 1017.8 0.0
10/03:30pm 22.7 17.2 0.9 23 10.0 SW 19 24 10 13 1018.1 1018.1 0.0
10/03:00pm 22.8 17.6 5.7 33 8.6 WSW 22 28 12 15 1018.4 1018.4 0.0
10/02:30pm 21.8 17.2 6.7 37 7.7 WSW 20 26 11 14 1018.5 1018.5 0.0
10/02:00pm 21.5 16.8 5.9 36 7.8 SW 20 26 11 14 1018.6 1018.6 0.0
10/01:30pm 21.7 17.3 6.5 37 7.7 SW 19 24 10 13 1018.8 1018.8 0.0
10/01:00pm 21.1 17.7 9.2 46 6.3 WSW 17 24 9 13 1018.9 1018.9 0.0
10/12:30pm 20.6 17.8 8.6 46 6.3 WSW 13 20 7 11 1019.1 1019.1 0.0
10/12:00pm 20.0 17.4 9.2 49 5.7 W 13 17 7 9 1019.7 1019.7 0.0
10/11:30am 19.3 16.2 8.7 50 5.5 WSW 15 19 8 10 1020.2 1020.2 0.0
10/11:00am 19.5 15.8 8.0 47 5.9 WSW 17 22 9 12 1020.4 1020.4 0.0
10/10:30am 19.5 16.2 8.0 47 5.9 SW 15 22 8 12 1020.5 1020.5 0.0
10/10:00am 19.3 17.1 7.7 47 5.9 WNW 9 17 5 9 1020.4 1020.4 0.0
10/09:30am 19.2 17.4 7.3 46 6.0 S 6 11 3 6 1020.4 1020.4 0.0
10/09:00am 18.3 16.5 7.1 48 5.6 ENE 6 11 3 6 1020.3 1020.3 0.0
10/08:30am 17.2 14.7 6.6 49 5.2 E 9 11 5 6 1020.2 1020.2 0.0
10/08:00am 15.5 13.1 6.9 56 4.2 ESE 9 11 5 6 1020.0 1020.0 0.0
10/07:30am 13.7 11.7 8.7 72 2.5 ENE 9 11 5 6 1019.8 1019.8 0.0
10/07:00am 11.9 10.2 8.2 78 1.8 NE 7 7 4 4 1019.6 1019.6 0.0
10/06:30am 10.4 8.5 7.5 82 1.4 NE 7 9 4 5 1019.2 1019.2 0.0
10/06:00am 9.6 8.9 7.0 84 1.2 CALM 0 0 0 0 1018.9 1018.9 0.0
10/05:30am 9.8 9.1 7.0 83 1.3 CALM 0 0 0 0 1018.6 1018.6 0.0

Other Formats:

Comma delimited format used in spreadsheet applications
http://www.bom.gov.au/fwo/IDS60801/IDS60801.94672.axf

JavaScript Object Notation format (JSON) in row-major order
http://www.bom.gov.au/fwo/IDS60801/IDS60801.94672.json